Time;durP1;ratioP1;P1;durP2;ratioP2;P2;SDS_P1;SDS_P2;PMS_P1;PMS_P2;Temp;Humidity;BMP_temperature;BMP_pressure;BME280_temperature;BME280_humidity;BME280_pressure;Samples;Min_cycle;Max_cycle;Signal;HPM_P1;HPM_P2
2022/05/02 00:00:12;;;;;;;3.80;2.90;;;;;;;;;;4993520;28;20125;-84
2022/05/02 00:02:39;;;;;;;3.38;3.08;;;;;;;;;;4995277;28;20396;-85
2022/05/02 00:05:07;;;;;;;5.07;3.47;;;;;;;;;;4993463;28;20054;-85
2022/05/02 00:07:35;;;;;;;4.43;3.28;;;;;;;;;;4993659;28;20104;-83
2022/05/02 00:10:03;;;;;;;6.03;3.17;;;;;;;;;;4993015;28;20562;-86
2022/05/02 00:12:30;;;;;;;6.25;3.53;;;;;;;;;;4993311;28;20479;-85
2022/05/02 00:14:57;;;;;;;3.85;3.45;;;;;;;;;;4992851;28;20117;-85
2022/05/02 00:17:56;;;;;;;3.40;3.10;;;;;;;;;;4994390;28;20070;-86
2022/05/02 00:20:12;;;;;;;7.32;2.90;;;;;;;;;;4994056;28;20583;-86
2022/05/02 00:22:40;;;;;;;4.55;3.35;;;;;;;;;;4993070;28;20050;-86
2022/05/02 00:25:08;;;;;;;4.13;2.80;;;;;;;;;;4994190;28;20077;-85
2022/05/02 00:27:35;;;;;;;3.08;2.88;;;;;;;;;;4993210;28;20157;-85
2022/05/02 00:30:02;;;;;;;7.78;3.45;;;;;;;;;;4993172;28;20145;-86
2022/05/02 00:32:29;;;;;;;5.10;3.45;;;;;;;;;;4994263;28;20504;-85
2022/05/02 00:34:56;;;;;;;4.07;3.05;;;;;;;;;;4994212;28;20070;-85
2022/05/02 00:37:23;;;;;;;6.07;3.03;;;;;;;;;;4993238;28;20054;-85
2022/05/02 00:39:50;;;;;;;4.80;3.50;;;;;;;;;;4994167;28;20054;-87
2022/05/02 00:42:20;;;;;;;3.40;3.13;;;;;;;;;;4992629;28;20078;-86
2022/05/02 00:44:47;;;;;;;6.35;3.28;;;;;;;;;;4992570;28;20054;-84
2022/05/02 00:47:20;;;;;;;3.45;3.17;;;;;;;;;;4993910;28;20054;-86
2022/05/02 00:49:48;;;;;;;3.63;3.33;;;;;;;;;;4992462;28;20052;-86
2022/05/02 00:52:16;;;;;;;4.47;3.28;;;;;;;;;;4992667;28;20070;-85
2022/05/02 00:54:44;;;;;;;4.43;4.05;;;;;;;;;;4992555;28;20081;-84
2022/05/02 00:57:12;;;;;;;6.38;3.55;;;;;;;;;;4992811;28;20050;-85
2022/05/02 00:59:40;;;;;;;5.57;3.78;;;;;;;;;;4992525;28;20089;-85
2022/05/02 01:02:08;;;;;;;5.28;3.47;;;;;;;;;;4992353;28;20141;-85
2022/05/02 01:04:36;;;;;;;5.47;3.83;;;;;;;;;;4992055;28;20539;-85
2022/05/02 01:07:10;;;;;;;6.72;3.70;;;;;;;;;;4992217;28;20082;-85
2022/05/02 01:09:41;;;;;;;16.45;3.95;;;;;;;;;;4995207;28;20099;-85
2022/05/02 01:12:16;;;;;;;8.90;4.03;;;;;;;;;;4992927;28;20682;-86
2022/05/02 01:14:45;;;;;;;4.78;3.78;;;;;;;;;;4993842;28;20050;-85
2022/05/02 01:17:12;;;;;;;4.00;3.60;;;;;;;;;;4992681;28;20053;-86
2022/05/02 01:19:39;;;;;;;5.07;3.70;;;;;;;;;;4993876;28;20050;-86
2022/05/02 01:22:07;;;;;;;5.03;3.85;;;;;;;;;;4992583;28;20142;-85
2022/05/02 01:24:38;;;;;;;4.72;3.78;;;;;;;;;;4992615;28;20054;-84
2022/05/02 01:27:06;;;;;;;4.45;3.53;;;;;;;;;;4993267;28;20113;-85
2022/05/02 01:29:34;;;;;;;4.93;3.42;;;;;;;;;;4996190;28;20488;-85
2022/05/02 01:32:02;;;;;;;6.18;3.83;;;;;;;;;;4996310;28;20074;-85
2022/05/02 01:34:29;;;;;;;5.15;3.70;;;;;;;;;;4995986;28;20082;-86
2022/05/02 01:36:56;;;;;;;5.72;4.00;;;;;;;;;;4995660;28;20058;-85
2022/05/02 01:39:24;;;;;;;6.45;3.78;;;;;;;;;;4996258;28;20051;-85
2022/05/02 01:41:51;;;;;;;8.65;4.07;;;;;;;;;;4995943;28;20070;-85
2022/05/02 01:44:18;;;;;;;4.38;3.92;;;;;;;;;;4996038;28;20096;-85
2022/05/02 01:46:45;;;;;;;10.75;4.28;;;;;;;;;;4997065;28;20133;-85
2022/05/02 01:49:12;;;;;;;5.15;3.83;;;;;;;;;;4996667;28;20141;-85
2022/05/02 01:51:40;;;;;;;5.75;3.72;;;;;;;;;;4995618;28;20046;-84
2022/05/02 01:54:07;;;;;;;3.88;3.50;;;;;;;;;;4995557;28;20137;-84
2022/05/02 01:56:34;;;;;;;4.18;3.72;;;;;;;;;;4995306;28;20452;-85
2022/05/02 01:59:01;;;;;;;5.88;3.70;;;;;;;;;;4995292;28;20137;-85
2022/05/02 02:01:29;;;;;;;4.45;3.50;;;;;;;;;;4994998;28;20057;-85
2022/05/02 02:03:56;;;;;;;4.50;3.80;;;;;;;;;;4996471;28;20149;-85
2022/05/02 02:06:23;;;;;;;4.80;3.83;;;;;;;;;;4996871;28;20116;-85
2022/05/02 02:08:51;;;;;;;4.88;3.75;;;;;;;;;;4996643;28;20092;-84
2022/05/02 02:11:18;;;;;;;6.38;3.70;;;;;;;;;;4995620;28;20192;-84
2022/05/02 02:13:45;;;;;;;5.15;4.15;;;;;;;;;;4995417;28;20511;-85
2022/05/02 02:16:13;;;;;;;4.88;4.38;;;;;;;;;;4995115;28;20074;-84
2022/05/02 02:18:41;;;;;;;7.03;3.97;;;;;;;;;;4995439;28;20512;-85
2022/05/02 02:21:10;;;;;;;5.78;4.00;;;;;;;;;;4995026;28;20078;-84
2022/05/02 02:23:39;;;;;;;6.88;4.18;;;;;;;;;;4994965;28;20054;-85
2022/05/02 02:26:06;;;;;;;4.45;4.05;;;;;;;;;;4997297;28;20054;-85
2022/05/02 02:28:34;;;;;;;5.82;4.43;;;;;;;;;;4995853;28;20510;-85
2022/05/02 02:31:01;;;;;;;5.07;3.90;;;;;;;;;;4995655;28;20054;-85
2022/05/02 02:33:28;;;;;;;6.68;3.83;;;;;;;;;;4995969;28;20069;-85
2022/05/02 02:35:55;;;;;;;6.40;3.80;;;;;;;;;;4995919;28;20058;-84
2022/05/02 02:38:23;;;;;;;8.05;3.65;;;;;;;;;;4995726;28;20499;-83
2022/05/02 02:40:50;;;;;;;9.32;4.22;;;;;;;;;;4996567;28;20124;-85
2022/05/02 02:43:17;;;;;;;6.43;4.35;;;;;;;;;;4996579;28;20046;-85
2022/05/02 02:45:44;;;;;;;5.85;3.67;;;;;;;;;;4997633;28;20469;-85
2022/05/02 02:48:12;;;;;;;5.65;3.40;;;;;;;;;;4995643;28;20046;-85
2022/05/02 02:50:39;;;;;;;5.80;3.60;;;;;;;;;;4995605;28;20092;-85
2022/05/02 02:53:06;;;;;;;4.55;3.85;;;;;;;;;;4995332;28;20085;-85
2022/05/02 02:55:33;;;;;;;3.58;3.33;;;;;;;;;;4995239;28;20050;-85
2022/05/02 02:58:02;;;;;;;5.30;4.07;;;;;;;;;;4995071;28;20075;-85
2022/05/02 03:00:29;;;;;;;5.32;4.00;;;;;;;;;;4995168;28;20077;-85
2022/05/02 03:02:58;;;;;;;7.93;4.25;;;;;;;;;;4994897;28;20128;-85
2022/05/02 03:08:11;;;;;;;6.40;4.35;;;;;;;;;;4996231;28;20073;-84
2022/05/02 03:10:38;;;;;;;6.68;4.55;;;;;;;;;;4995236;28;20042;-84
2022/05/02 03:13:05;;;;;;;10.18;4.70;;;;;;;;;;4994755;28;20141;-85
2022/05/02 03:15:33;;;;;;;7.15;5.00;;;;;;;;;;4994894;28;20055;-85
2022/05/02 03:18:07;;;;;;;9.68;5.88;;;;;;;;;;4996228;28;20491;-85
2022/05/02 03:20:34;;;;;;;7.45;5.47;;;;;;;;;;4994494;28;20463;-84
2022/05/02 03:23:01;;;;;;;7.07;5.80;;;;;;;;;;4994687;28;20137;-85
2022/05/02 03:25:28;;;;;;;7.28;5.63;;;;;;;;;;4994366;28;20051;-85
2022/05/02 03:27:55;;;;;;;10.85;5.55;;;;;;;;;;4994126;28;20054;-84
2022/05/02 03:30:22;;;;;;;7.72;5.72;;;;;;;;;;4994327;28;20065;-84
2022/05/02 03:32:52;;;;;;;5.85;5.10;;;;;;;;;;4994159;28;20053;-84
2022/05/02 03:35:19;;;;;;;9.07;5.25;;;;;;;;;;4993863;28;20046;-85
2022/05/02 03:37:46;;;;;;;7.53;5.25;;;;;;;;;;4993262;28;20504;-85
2022/05/02 03:40:13;;;;;;;10.05;6.00;;;;;;;;;;4994271;28;20085;-85
2022/05/02 03:42:41;;;;;;;11.70;5.35;;;;;;;;;;4994836;28;20133;-84
2022/05/02 03:45:08;;;;;;;8.15;5.80;;;;;;;;;;4995225;28;20178;-84
2022/05/02 03:47:35;;;;;;;13.90;5.82;;;;;;;;;;4995173;28;20105;-85
2022/05/02 03:50:03;;;;;;;6.38;5.18;;;;;;;;;;4994315;28;20110;-85
2022/05/02 03:52:30;;;;;;;12.40;6.00;;;;;;;;;;4997061;28;20108;-85
2022/05/02 03:54:57;;;;;;;16.30;6.32;;;;;;;;;;4996241;28;20487;-84
2022/05/02 03:57:24;;;;;;;7.78;5.68;;;;;;;;;;4995038;28;20133;-83
2022/05/02 03:59:51;;;;;;;10.50;7.30;;;;;;;;;;4994464;28;20078;-83
2022/05/02 04:02:18;;;;;;;12.50;7.32;;;;;;;;;;4996061;28;20061;-83
2022/05/02 04:04:46;;;;;;;10.90;6.35;;;;;;;;;;4994580;28;20058;-82
2022/05/02 04:07:13;;;;;;;13.15;6.85;;;;;;;;;;4995175;28;20065;-83
2022/05/02 04:09:41;;;;;;;17.65;11.02;;;;;;;;;;4996135;28;20077;-85
2022/05/02 04:12:08;;;;;;;12.35;8.30;;;;;;;;;;4994872;28;20046;-83
2022/05/02 04:14:35;;;;;;;13.50;9.35;;;;;;;;;;4994318;28;20504;-85
2022/05/02 04:17:03;;;;;;;15.65;10.10;;;;;;;;;;4994263;28;20073;-83
2022/05/02 04:19:30;;;;;;;16.00;9.57;;;;;;;;;;4994523;28;20090;-83
2022/05/02 04:21:57;;;;;;;10.20;5.82;;;;;;;;;;4994537;28;20112;-83
2022/05/02 04:24:24;;;;;;;8.57;5.50;;;;;;;;;;4994663;28;20557;-83
2022/05/02 04:26:51;;;;;;;13.70;7.53;;;;;;;;;;4994217;28;20141;-83
2022/05/02 04:29:18;;;;;;;16.52;8.93;;;;;;;;;;4994467;28;20082;-83
2022/05/02 04:31:46;;;;;;;17.80;6.43;;;;;;;;;;4994569;28;20125;-83
2022/05/02 04:34:14;;;;;;;12.35;5.90;;;;;;;;;;4994764;28;20073;-83
2022/05/02 04:36:41;;;;;;;10.77;4.93;;;;;;;;;;4994637;28;20129;-84
2022/05/02 04:39:08;;;;;;;24.17;5.85;;;;;;;;;;4993686;28;20117;-84
2022/05/02 04:41:35;;;;;;;25.30;6.75;;;;;;;;;;4993846;28;20073;-83
2022/05/02 04:44:02;;;;;;;6.25;4.47;;;;;;;;;;4995547;28;20387;-83
2022/05/02 04:46:29;;;;;;;7.88;4.53;;;;;;;;;;4994239;28;20050;-83
2022/05/02 04:48:56;;;;;;;4.75;4.35;;;;;;;;;;4994880;28;20050;-83
2022/05/02 04:51:24;;;;;;;6.35;4.30;;;;;;;;;;4992991;28;20073;-83
2022/05/02 04:53:51;;;;;;;8.05;4.20;;;;;;;;;;4992733;28;20133;-83
2022/05/02 04:56:18;;;;;;;6.35;4.13;;;;;;;;;;4993604;28;20130;-83
2022/05/02 04:58:45;;;;;;;6.53;4.38;;;;;;;;;;4992717;28;20106;-83
2022/05/02 05:01:12;;;;;;;6.55;4.28;;;;;;;;;;4995347;28;20054;-84
2022/05/02 05:03:40;;;;;;;6.20;4.15;;;;;;;;;;4998600;28;20058;-83
2022/05/02 05:06:07;;;;;;;15.63;4.70;;;;;;;;;;4998107;28;20057;-82
2022/05/02 05:08:35;;;;;;;7.63;4.28;;;;;;;;;;4998411;28;20137;-85
2022/05/02 05:11:11;;;;;;;7.90;4.90;;;;;;;;;;4998494;28;20092;-84
2022/05/02 05:16:20;;;;;;;10.70;4.75;;;;;;;;;;4998474;28;20104;-85
2022/05/02 05:16:45;;;;;;;8.10;4.38;;;;;;;;;;4998123;28;20500;-85
2022/05/02 05:19:15;;;;;;;4.15;3.80;;;;;;;;;;4996218;28;20496;-84
2022/05/02 05:21:55;;;;;;;5.65;3.60;;;;;;;;;;4998723;28;20085;-86
2022/05/02 05:24:42;;;;;;;5.47;3.63;;;;;;;;;;5002547;28;20408;-85
2022/05/02 05:27:23;;;;;;;6.80;3.35;;;;;;;;;;5002501;28;20057;-85
2022/05/02 05:29:57;;;;;;;9.25;3.85;;;;;;;;;;5001421;28;20046;-86
2022/05/02 05:32:28;;;;;;;10.02;3.70;;;;;;;;;;5002941;28;20449;-85
2022/05/02 05:35:06;;;;;;;8.02;3.25;;;;;;;;;;5002353;28;20062;-85
2022/05/02 05:37:33;;;;;;;16.98;3.70;;;;;;;;;;5003710;28;20097;-86
2022/05/02 05:40:13;;;;;;;7.70;3.10;;;;;;;;;;5003006;28;20092;-86
2022/05/02 05:42:49;;;;;;;12.90;3.40;;;;;;;;;;5002442;28;20046;-86
2022/05/02 05:45:20;;;;;;;7.90;3.35;;;;;;;;;;5002149;28;20050;-86
2022/05/02 05:47:57;;;;;;;9.57;3.65;;;;;;;;;;5002952;28;20141;-85
2022/05/02 05:50:26;;;;;;;4.93;3.45;;;;;;;;;;5001775;28;20104;-86
2022/05/02 05:52:56;;;;;;;4.80;3.67;;;;;;;;;;5002166;28;20050;-86
2022/05/02 05:55:38;;;;;;;10.95;4.35;;;;;;;;;;5003170;28;20042;-85
2022/05/02 05:58:09;;;;;;;15.00;3.60;;;;;;;;;;4995595;28;20053;-84
2022/05/02 06:00:42;;;;;;;8.00;3.97;;;;;;;;;;4995997;28;20050;-85
2022/05/02 06:03:14;;;;;;;8.55;3.65;;;;;;;;;;4995391;28;20116;-85
2022/05/02 06:05:42;;;;;;;15.05;3.72;;;;;;;;;;4995557;28;20081;-84
2022/05/02 06:08:14;;;;;;;13.82;4.65;;;;;;;;;;4996539;28;20061;-84
2022/05/02 06:10:43;;;;;;;8.35;4.40;;;;;;;;;;4995085;28;20125;-84
2022/05/02 06:13:10;;;;;;;6.47;4.32;;;;;;;;;;4994339;28;20051;-83
2022/05/02 06:18:28;;;;;;;6.45;4.57;;;;;;;;;;4997139;28;20043;-84
2022/05/02 06:20:57;;;;;;;5.47;4.20;;;;;;;;;;4995387;28;20058;-84
2022/05/02 06:23:25;;;;;;;12.43;5.18;;;;;;;;;;4995772;28;20081;-85
2022/05/02 06:25:54;;;;;;;6.00;4.55;;;;;;;;;;4995090;28;20133;-85
2022/05/02 06:28:25;;;;;;;9.25;5.18;;;;;;;;;;4995515;28;20148;-85
2022/05/02 06:34:08;;;;;;;5.70;4.88;;;;;;;;;;4939644;29;20048;-82
2022/05/02 06:36:52;;;;;;;9.02;5.25;;;;;;;;;;4988860;28;20057;-86
2022/05/02 06:39:35;;;;;;;13.30;4.57;;;;;;;;;;4997628;28;20400;-83
2022/05/02 06:42:24;;;;;;;15.52;4.80;;;;;;;;;;4996479;28;20289;-83
2022/05/02 06:44:57;;;;;;;6.07;4.53;;;;;;;;;;4983617;28;20396;-86
2022/05/02 06:47:28;;;;;;;10.25;4.80;;;;;;;;;;4995737;28;20138;-85
2022/05/02 06:49:57;;;;;;;6.72;3.88;;;;;;;;;;4994931;28;20054;-84
2022/05/02 06:52:27;;;;;;;8.93;5.70;;;;;;;;;;4996322;28;20054;-83
2022/05/02 06:54:54;;;;;;;8.85;4.57;;;;;;;;;;4995626;28;20046;-84
2022/05/02 06:57:41;;;;;;;7.60;4.25;;;;;;;;;;4994120;28;20077;-81
2022/05/02 07:00:19;;;;;;;6.32;4.20;;;;;;;;;;4995655;28;20073;-85
2022/05/02 07:03:06;;;;;;;4.80;4.28;;;;;;;;;;4993489;28;20534;-81
2022/05/02 07:05:52;;;;;;;6.07;4.32;;;;;;;;;;4993698;28;20460;-83
2022/05/02 07:08:25;;;;;;;6.40;4.35;;;;;;;;;;4994976;28;20047;-85
2022/05/02 07:10:56;;;;;;;6.38;4.38;;;;;;;;;;4994640;28;20078;-85
2022/05/02 07:13:29;;;;;;;6.82;4.63;;;;;;;;;;4996894;28;20466;-85
2022/05/02 07:15:56;;;;;;;4.65;4.28;;;;;;;;;;4994483;28;20519;-84
2022/05/02 07:18:41;;;;;;;7.82;4.43;;;;;;;;;;4994031;28;20050;-82
2022/05/02 07:21:16;;;;;;;6.80;4.75;;;;;;;;;;4994247;28;20054;-84
2022/05/02 07:23:43;;;;;;;4.90;4.38;;;;;;;;;;4994470;28;20141;-83
2022/05/02 07:26:14;;;;;;;4.78;4.38;;;;;;;;;;4993471;28;20410;-85
2022/05/02 07:28:44;;;;;;;6.75;4.78;;;;;;;;;;4994251;28;20439;-84
2022/05/02 07:31:18;;;;;;;8.88;4.28;;;;;;;;;;4993834;28;20047;-85
2022/05/02 07:33:46;;;;;;;7.70;4.60;;;;;;;;;;4994211;28;20473;-85
2022/05/02 07:36:15;;;;;;;7.07;4.93;;;;;;;;;;4994816;28;20050;-83
2022/05/02 07:38:44;;;;;;;8.80;4.63;;;;;;;;;;4994166;28;20097;-82
2022/05/02 07:41:22;;;;;;;9.73;4.93;;;;;;;;;;4994937;28;20058;-84
2022/05/02 07:43:50;;;;;;;7.10;4.63;;;;;;;;;;4995116;28;20097;-85
2022/05/02 07:46:26;;;;;;;7.72;5.15;;;;;;;;;;4995922;28;20050;-83
2022/05/02 07:48:53;;;;;;;8.23;4.57;;;;;;;;;;4994382;28;20050;-85
2022/05/02 07:51:22;;;;;;;10.55;5.32;;;;;;;;;;4994019;28;20504;-84
2022/05/02 07:53:51;;;;;;;9.38;5.30;;;;;;;;;;4994154;28;20050;-84
2022/05/02 07:56:21;;;;;;;7.97;4.97;;;;;;;;;;4995026;28;20149;-82
2022/05/02 07:58:51;;;;;;;5.50;4.50;;;;;;;;;;4995571;28;20046;-84
2022/05/02 08:01:21;;;;;;;5.07;4.57;;;;;;;;;;4995374;28;20100;-85
2022/05/02 08:03:49;;;;;;;11.18;5.25;;;;;;;;;;4994887;28;20109;-84
2022/05/02 08:06:35;;;;;;;9.40;5.30;;;;;;;;;;4994524;28;20120;-83
2022/05/02 08:09:13;;;;;;;8.10;5.32;;;;;;;;;;4994926;28;20050;-85
2022/05/02 08:11:40;;;;;;;7.43;5.28;;;;;;;;;;4994782;28;20129;-83
2022/05/02 08:14:09;;;;;;;6.97;5.32;;;;;;;;;;4995069;28;20082;-83
2022/05/02 08:16:40;;;;;;;5.93;5.00;;;;;;;;;;4993833;28;20045;-85
2022/05/02 08:19:19;;;;;;;7.50;5.13;;;;;;;;;;4993809;28;20057;-83
2022/05/02 08:21:51;;;;;;;7.60;4.38;;;;;;;;;;4993851;28;20579;-84
2022/05/02 08:27:17;;;;;;;6.32;4.85;;;;;;;;;;4994783;28;20054;-84
2022/05/02 08:29:44;;;;;;;9.30;5.18;;;;;;;;;;4993342;28;20526;-84
2022/05/02 08:32:37;;;;;;;5.22;4.72;;;;;;;;;;4994325;28;20046;-85
2022/05/02 08:35:09;;;;;;;7.90;4.55;;;;;;;;;;4970840;28;20415;-85
2022/05/02 08:37:48;;;;;;;7.13;4.40;;;;;;;;;;4992975;28;20077;-85
2022/05/02 08:40:24;;;;;;;10.02;4.38;;;;;;;;;;4993346;28;20089;-84
2022/05/02 08:42:52;;;;;;;6.65;4.07;;;;;;;;;;4993387;28;20050;-85
2022/05/02 08:45:40;;;;;;;5.68;4.60;;;;;;;;;;4993567;28;20054;-84
2022/05/02 08:48:08;;;;;;;5.70;4.53;;;;;;;;;;4993345;28;20055;-85
2022/05/02 08:51:05;;;;;;;5.63;3.90;;;;;;;;;;4995434;28;20496;-84
2022/05/02 08:53:51;;;;;;;4.25;3.85;;;;;;;;;;4979304;28;20051;-86
2022/05/02 08:56:21;;;;;;;10.18;3.88;;;;;;;;;;4993957;28;20050;-86
2022/05/02 08:59:07;;;;;;;18.92;5.03;;;;;;;;;;4995048;28;20568;-86
2022/05/02 09:01:50;;;;;;;4.95;4.20;;;;;;;;;;4996899;28;20051;-85
2022/05/02 09:04:20;;;;;;;7.85;4.10;;;;;;;;;;4994410;28;20459;-85
2022/05/02 09:06:59;;;;;;;7.85;3.80;;;;;;;;;;4994007;28;20486;-86
2022/05/02 09:09:49;;;;;;;4.80;3.75;;;;;;;;;;4995220;28;20050;-86
2022/05/02 09:12:34;;;;;;;5.63;3.63;;;;;;;;;;4994681;28;20046;-85
2022/05/02 09:15:20;;;;;;;8.18;4.40;;;;;;;;;;4995888;28;20456;-84
2022/05/02 09:18:02;;;;;;;7.75;4.10;;;;;;;;;;4995052;28;20125;-84
2022/05/02 09:20:30;;;;;;;12.60;4.55;;;;;;;;;;4996017;28;20515;-83
2022/05/02 09:23:16;;;;;;;7.07;4.47;;;;;;;;;;4998473;28;20145;-85
2022/05/02 09:25:46;;;;;;;5.68;4.03;;;;;;;;;;4995585;28;20082;-85
2022/05/02 09:28:13;;;;;;;5.18;4.30;;;;;;;;;;4996038;28;20415;-85
2022/05/02 09:30:50;;;;;;;4.65;3.92;;;;;;;;;;4995942;28;20456;-85
2022/05/02 09:33:35;;;;;;;6.43;3.70;;;;;;;;;;4995455;28;20137;-86
2022/05/02 09:36:04;;;;;;;8.55;4.30;;;;;;;;;;4997269;28;20420;-83
2022/05/02 09:38:47;;;;;;;6.07;4.25;;;;;;;;;;4998010;28;20157;-86
2022/05/02 09:41:33;;;;;;;4.57;3.53;;;;;;;;;;4998255;28;20061;-82
2022/05/02 09:50:09;;;;;;;4.53;3.75;;;;;;;;;;5002784;28;20082;-82
2022/05/02 09:52:59;;;;;;;6.53;3.10;;;;;;;;;;5002546;28;20047;-82
2022/05/02 09:58:32;;;;;;;6.60;3.50;;;;;;;;;;5002634;28;20050;-82
2022/05/02 10:01:07;;;;;;;6.93;3.88;;;;;;;;;;5001642;28;20118;-82
2022/05/02 10:03:59;;;;;;;4.45;3.50;;;;;;;;;;5002401;28;20503;-82
2022/05/02 10:06:35;;;;;;;6.53;4.07;;;;;;;;;;4995073;28;20050;-80
2022/05/02 10:09:04;;;;;;;5.65;3.33;;;;;;;;;;5013598;28;20094;-85
2022/05/02 10:11:32;;;;;;;8.45;3.92;;;;;;;;;;5009218;28;20046;-83
2022/05/02 10:14:18;;;;;;;4.32;3.10;;;;;;;;;;5003312;28;20485;-82
2022/05/02 10:16:51;;;;;;;24.85;4.18;;;;;;;;;;5002758;28;20070;-83
2022/05/02 10:19:21;;;;;;;5.63;3.67;;;;;;;;;;5005693;28;20057;-84
2022/05/02 10:21:58;;;;;;;5.10;3.85;;;;;;;;;;5003226;28;20089;-80
2022/05/02 10:24:25;;;;;;;7.22;3.28;;;;;;;;;;5005762;28;20064;-84
2022/05/02 10:26:56;;;;;;;9.30;3.35;;;;;;;;;;5004354;28;20054;-83
2022/05/02 10:29:24;;;;;;;6.40;3.47;;;;;;;;;;5003190;28;20119;-85
2022/05/02 10:31:55;;;;;;;6.15;3.15;;;;;;;;;;5004344;28;20392;-84
2022/05/02 10:34:25;;;;;;;5.18;3.50;;;;;;;;;;5003736;28;20046;-85
2022/05/02 10:36:54;;;;;;;7.88;2.92;;;;;;;;;;5003996;28;20070;-86
2022/05/02 10:39:26;;;;;;;8.23;3.17;;;;;;;;;;5005039;28;20540;-86
2022/05/02 10:41:58;;;;;;;9.13;3.30;;;;;;;;;;5003979;28;20051;-85
2022/05/02 10:44:35;;;;;;;4.57;3.08;;;;;;;;;;5003000;28;20054;-83
2022/05/02 10:47:04;;;;;;;6.97;3.17;;;;;;;;;;5005189;28;20057;-85
2022/05/02 10:49:50;;;;;;;7.10;3.22;;;;;;;;;;5003884;28;20413;-84
2022/05/02 10:52:26;;;;;;;4.88;3.17;;;;;;;;;;5003965;28;20058;-84
2022/05/02 10:55:01;;;;;;;7.40;2.72;;;;;;;;;;5005786;28;20074;-83
2022/05/02 10:57:35;;;;;;;4.20;3.05;;;;;;;;;;5002489;28;20104;-82
2022/05/02 11:00:04;;;;;;;5.30;3.00;;;;;;;;;;5001135;28;20133;-82
2022/05/02 11:02:31;;;;;;;4.70;3.00;;;;;;;;;;5001722;28;20047;-81
2022/05/02 11:05:04;;;;;;;3.60;3.30;;;;;;;;;;5002785;28;20051;-82
2022/05/02 11:07:51;;;;;;;4.23;3.27;;;;;;;;;;5007240;28;20086;-82
2022/05/02 11:10:22;;;;;;;6.93;3.50;;;;;;;;;;5001658;28;20293;-84
2022/05/02 11:12:56;;;;;;;3.40;2.85;;;;;;;;;;5004345;28;20487;-82
2022/05/02 11:15:25;;;;;;;4.68;3.13;;;;;;;;;;5001348;28;20484;-82
2022/05/02 11:18:07;;;;;;;6.60;3.30;;;;;;;;;;5003857;28;20047;-83
2022/05/02 11:20:49;;;;;;;4.95;2.95;;;;;;;;;;5002990;28;20051;-81
2022/05/02 11:23:31;;;;;;;5.75;3.08;;;;;;;;;;5001020;28;20081;-81
2022/05/02 11:26:09;;;;;;;8.60;3.45;;;;;;;;;;5003043;28;20054;-80
2022/05/02 11:28:49;;;;;;;4.25;2.80;;;;;;;;;;5001681;28;20073;-82
2022/05/02 11:31:18;;;;;;;4.90;2.60;;;;;;;;;;5000610;28;20088;-83
2022/05/02 11:34:04;;;;;;;3.63;2.70;;;;;;;;;;5000350;28;20046;-83
2022/05/02 11:36:34;;;;;;;4.57;3.40;;;;;;;;;;5001171;28;20101;-81
2022/05/02 11:39:05;;;;;;;5.40;3.05;;;;;;;;;;5001460;28;20054;-83
2022/05/02 11:41:33;;;;;;;4.28;2.58;;;;;;;;;;5003569;28;20473;-81
2022/05/02 11:44:11;;;;;;;3.92;2.90;;;;;;;;;;5002752;28;20050;-82
2022/05/02 11:46:45;;;;;;;10.80;2.85;;;;;;;;;;5001099;28;20046;-81
2022/05/02 11:49:26;;;;;;;6.90;2.97;;;;;;;;;;5000875;28;20054;-82
2022/05/02 11:52:00;;;;;;;6.18;2.85;;;;;;;;;;5003611;28;20046;-84
2022/05/02 11:54:27;;;;;;;4.97;3.00;;;;;;;;;;5002590;28;20531;-84
2022/05/02 11:56:56;;;;;;;6.07;3.20;;;;;;;;;;5002597;28;20046;-82
2022/05/02 11:59:24;;;;;;;6.95;2.97;;;;;;;;;;5004835;28;20046;-83
2022/05/02 12:01:58;;;;;;;6.40;3.22;;;;;;;;;;5003283;28;20070;-83
2022/05/02 12:04:28;;;;;;;8.15;2.88;;;;;;;;;;5002464;28;20571;-83
2022/05/02 12:07:04;;;;;;;5.20;3.03;;;;;;;;;;4995352;28;20050;-79
2022/05/02 12:09:34;;;;;;;7.85;2.90;;;;;;;;;;4994107;28;20089;-80
2022/05/02 12:12:07;;;;;;;3.15;2.78;;;;;;;;;;5003666;28;20058;-82
2022/05/02 12:14:34;;;;;;;4.33;2.80;;;;;;;;;;5002187;28;20538;-81
2022/05/02 12:17:03;;;;;;;6.30;3.08;;;;;;;;;;5002091;28;20312;-83
2022/05/02 12:19:30;;;;;;;4.85;3.00;;;;;;;;;;4999826;28;20057;-83
2022/05/02 12:21:59;;;;;;;9.63;3.40;;;;;;;;;;5000411;28;20061;-83
2022/05/02 12:24:28;;;;;;;7.75;3.63;;;;;;;;;;5000302;28;20050;-81
2022/05/02 12:26:56;;;;;;;4.70;3.08;;;;;;;;;;5000436;28;20084;-82
2022/05/02 12:29:26;;;;;;;4.97;2.97;;;;;;;;;;5000944;28;20546;-82
2022/05/02 12:31:57;;;;;;;6.28;3.17;;;;;;;;;;4999875;28;20053;-81
2022/05/02 12:34:35;;;;;;;6.70;3.13;;;;;;;;;;5000655;28;20125;-81
2022/05/02 12:37:08;;;;;;;5.07;2.92;;;;;;;;;;5001063;28;20050;-85
2022/05/02 12:39:44;;;;;;;5.93;2.85;;;;;;;;;;4999814;28;20412;-81
2022/05/02 12:42:19;;;;;;;5.18;3.05;;;;;;;;;;5000740;28;20610;-82
2022/05/02 12:44:49;;;;;;;6.43;2.60;;;;;;;;;;5004213;28;20062;-81
2022/05/02 12:47:18;;;;;;;4.82;2.88;;;;;;;;;;5002234;28;20120;-82
2022/05/02 12:49:57;;;;;;;11.35;3.05;;;;;;;;;;4999690;28;20089;-82
2022/05/02 12:52:26;;;;;;;8.57;3.35;;;;;;;;;;5000625;28;20129;-81
2022/05/02 12:54:54;;;;;;;8.68;3.63;;;;;;;;;;4999401;28;20046;-81
2022/05/02 13:00:32;;;;;;;3.72;3.33;;;;;;;;;;5003992;28;20047;-81
2022/05/02 13:03:08;;;;;;;5.07;3.08;;;;;;;;;;5001637;28;20132;-82
2022/05/02 13:05:35;;;;;;;4.55;2.95;;;;;;;;;;5000146;28;20089;-81
2022/05/02 13:08:10;;;;;;;4.30;3.22;;;;;;;;;;4999622;28;20046;-80
2022/05/02 13:10:39;;;;;;;4.40;3.10;;;;;;;;;;5000201;28;20058;-79
2022/05/02 13:13:08;;;;;;;6.80;3.70;;;;;;;;;;4998726;28;20085;-81
2022/05/02 13:15:48;;;;;;;6.72;3.03;;;;;;;;;;5000955;28;20181;-82
2022/05/02 13:18:22;;;;;;;7.43;3.80;;;;;;;;;;5001989;22;20156;-93
2022/05/02 13:21:05;;;;;;;3.63;2.92;;;;;;;;;;5009017;28;20046;-94
2022/05/02 13:23:39;;;;;;;3.15;2.72;;;;;;;;;;4997409;28;20141;-94
2022/05/02 13:26:23;;;;;;;6.85;3.10;;;;;;;;;;5013935;28;20105;-93
2022/05/02 13:29:05;;;;;;;3.47;3.17;;;;;;;;;;5014367;28;20110;-94
2022/05/02 13:31:42;;;;;;;5.38;3.08;;;;;;;;;;5014322;28;20070;-94
2022/05/02 13:34:20;;;;;;;7.90;3.15;;;;;;;;;;5013257;28;20050;-94
2022/05/02 13:36:48;;;;;;;8.05;2.78;;;;;;;;;;5013656;28;20125;-94
2022/05/02 13:39:19;;;;;;;6.88;2.80;;;;;;;;;;5014148;28;20145;-92
2022/05/02 13:41:54;;;;;;;4.10;3.30;;;;;;;;;;4999264;28;20054;-93
2022/05/02 13:44:32;;;;;;;5.25;3.17;;;;;;;;;;4998427;28;20077;-95
2022/05/02 13:47:06;;;;;;;6.95;2.90;;;;;;;;;;5014298;28;20133;-94
2022/05/02 13:49:33;;;;;;;4.85;2.95;;;;;;;;;;5013829;28;20085;-94
2022/05/02 13:52:11;;;;;;;2.67;2.45;;;;;;;;;;5013823;28;20114;-94
2022/05/02 13:54:41;;;;;;;3.72;2.63;;;;;;;;;;5006979;28;20051;-93
2022/05/02 13:57:17;;;;;;;2.72;2.53;;;;;;;;;;5016383;28;20046;-94
2022/05/02 14:00:55;;;;;;;5.60;3.17;;;;;;;;;;5014016;28;20082;-92
2022/05/02 14:03:10;;;;;;;2.75;2.47;;;;;;;;;;4996939;28;20492;-94
2022/05/02 14:08:29;;;;;;;4.63;2.50;;;;;;;;;;4997351;28;20058;-94
2022/05/02 14:10:58;;;;;;;8.60;3.30;;;;;;;;;;4997625;28;20074;-93
2022/05/02 14:13:29;;;;;;;5.38;3.13;;;;;;;;;;5013492;28;20054;-95
2022/05/02 14:16:09;;;;;;;9.05;2.80;;;;;;;;;;4998046;28;20481;-93
2022/05/02 14:18:47;;;;;;;6.15;3.42;;;;;;;;;;4996595;28;20064;-92
2022/05/02 14:21:14;;;;;;;4.75;2.95;;;;;;;;;;5012129;28;20137;-92
2022/05/02 14:23:45;;;;;;;5.47;3.13;;;;;;;;;;5012392;28;20501;-93
2022/05/02 14:26:12;;;;;;;5.20;3.50;;;;;;;;;;4996778;28;20101;-93
2022/05/02 14:28:47;;;;;;;3.25;2.95;;;;;;;;;;5012344;28;20578;-93
2022/05/02 14:31:14;;;;;;;5.57;2.90;;;;;;;;;;5012993;28;20454;-92
2022/05/02 14:33:42;;;;;;;3.03;2.70;;;;;;;;;;5011047;28;20046;-94
2022/05/02 14:36:10;;;;;;;3.55;3.15;;;;;;;;;;5012191;28;20122;-94
2022/05/02 14:38:37;;;;;;;5.72;3.03;;;;;;;;;;4996986;28;20447;-92
2022/05/02 14:41:05;;;;;;;4.85;2.88;;;;;;;;;;5012567;28;20451;-93
2022/05/02 14:43:33;;;;;;;7.07;2.95;;;;;;;;;;4996676;28;20047;-93
2022/05/02 14:46:02;;;;;;;3.50;2.88;;;;;;;;;;4996726;28;20129;-94
2022/05/02 14:48:29;;;;;;;6.28;2.88;;;;;;;;;;5012611;28;20193;-93
2022/05/02 14:51:17;;;;;;;12.07;3.42;;;;;;;;;;5012411;28;20050;-92
2022/05/02 14:53:44;;;;;;;5.15;3.40;;;;;;;;;;5011665;28;20054;-92
2022/05/02 14:56:16;;;;;;;3.08;2.60;;;;;;;;;;5012420;28;20082;-93
2022/05/02 14:58:44;;;;;;;8.90;3.38;;;;;;;;;;5012441;28;20101;-89
2022/05/02 15:01:14;;;;;;;6.47;3.55;;;;;;;;;;5012450;28;20046;-93
2022/05/02 15:03:53;;;;;;;4.40;3.45;;;;;;;;;;5013098;28;20141;-92
2022/05/02 15:06:30;;;;;;;7.22;3.25;;;;;;;;;;5013393;28;20089;-92
2022/05/02 15:09:16;;;;;;;10.13;3.13;;;;;;;;;;5019810;28;20081;-90
2022/05/02 15:11:57;;;;;;;4.70;3.80;;;;;;;;;;5013826;28;20058;-91
2022/05/02 15:14:50;;;;;;;7.72;2.88;;;;;;;;;;5012577;28;20109;-91
2022/05/02 15:17:27;;;;;;;5.20;2.95;;;;;;;;;;5011498;28;20062;-93
2022/05/02 15:19:55;;;;;;;5.93;2.90;;;;;;;;;;5012644;28;20541;-96
2022/05/02 15:22:24;;;;;;;4.25;2.95;;;;;;;;;;5011280;28;20055;-93
2022/05/02 15:25:12;;;;;;;5.68;3.15;;;;;;;;;;5011192;28;20058;-92
2022/05/02 15:36:47;;;;;;;3.78;2.90;;;;;;;;;;5004749;28;20031;-90
2022/05/02 15:39:22;;;;;;;4.68;3.25;;;;;;;;;;5018898;28;20058;-92
2022/05/02 15:41:51;;;;;;;5.28;2.90;;;;;;;;;;5018120;28;20043;-92
2022/05/02 15:44:19;;;;;;;3.58;3.25;;;;;;;;;;5015737;28;20073;-92